Time;durP1;ratioP1;P1;durP2;ratioP2;P2;SDS_P1;SDS_P2;PMS_P1;PMS_P2;Temp;Humidity;BMP_temperature;BMP_pressure;BME280_temperature;BME280_humidity;BME280_pressure;Samples;Min_cycle;Max_cycle;Signal;HPM_P1;HPM_P2
2022/09/30 00:00:41;;;;;;;3.67;1.40;;;;;;;7.01;94.12;99356.81;4997343;28;20021;-92
2022/09/30 00:03:07;;;;;;;4.57;1.75;;;;;;;7.05;93.01;99362.34;5014838;28;20064;-93
2022/09/30 00:05:32;;;;;;;5.88;2.17;;;;;;;7.08;92.90;99359.78;4997824;28;20482;-92
2022/09/30 00:07:57;;;;;;;5.77;2.00;;;;;;;7.12;92.70;99365.34;4997681;28;20058;-92
2022/09/30 00:10:25;;;;;;;4.83;2.13;;;;;;;7.15;92.80;99361.97;4997495;28;20273;-91
2022/09/30 00:12:52;;;;;;;4.63;2.13;;;;;;;7.21;92.65;99361.41;5015050;28;20056;-91
2022/09/30 00:15:23;;;;;;;5.70;2.28;;;;;;;7.25;92.86;99369.69;4996491;28;20037;-89
2022/09/30 00:18:01;;;;;;;5.07;2.17;;;;;;;7.28;92.25;99379.88;4997369;28;20065;-93
2022/09/30 00:20:26;;;;;;;5.20;1.90;;;;;;;7.32;92.37;99375.38;5014699;28;20470;-91
2022/09/30 00:22:55;;;;;;;5.10;2.00;;;;;;;7.40;91.76;99379.94;5014865;28;20022;-93
2022/09/30 00:25:20;;;;;;;5.63;2.63;;;;;;;7.39;91.08;99380.25;5014649;28;20087;-93
2022/09/30 00:27:45;;;;;;;5.53;2.30;;;;;;;7.41;91.64;99384.22;5013641;28;20033;-92
2022/09/30 00:30:11;;;;;;;4.80;2.23;;;;;;;7.41;91.16;99389.66;4997222;28;20269;-94
2022/09/30 00:32:36;;;;;;;6.38;1.98;;;;;;;7.45;91.11;99385.16;4997338;28;20091;-93
2022/09/30 00:35:02;;;;;;;4.95;2.40;;;;;;;7.43;91.05;99378.47;4996817;28;20034;-91
2022/09/30 00:37:34;;;;;;;5.43;2.00;;;;;;;7.99;87.86;99371.56;5014469;28;20026;-91
2022/09/30 00:39:59;;;;;;;5.43;2.15;;;;;;;7.84;87.77;99375.69;5014157;28;20033;-91
2022/09/30 00:42:25;;;;;;;5.75;2.20;;;;;;;7.62;88.69;99378.78;4996054;28;20025;-91
2022/09/30 00:45:12;;;;;;;4.80;2.05;;;;;;;7.19;90.31;99381.84;5013842;28;20538;-91
2022/09/30 00:47:59;;;;;;;6.45;1.70;;;;;;;7.15;90.58;99381.69;5013860;28;20026;-88
2022/09/30 00:50:30;;;;;;;6.78;2.15;;;;;;;7.05;91.12;99373.97;5013248;28;20033;-88
2022/09/30 00:53:29;;;;;;;5.25;2.17;;;;;;;7.00;91.27;99385.00;4997661;28;20072;-90
2022/09/30 00:56:00;;;;;;;7.13;1.80;;;;;;;6.97;91.84;99385.66;5015479;28;20037;-88
2022/09/30 00:59:08;;;;;;;6.05;2.25;;;;;;;6.86;91.97;99385.22;4998063;28;20117;-90
2022/09/30 01:01:36;;;;;;;;;;;;;;;6.38;94.04;99384.81;4997870;28;20041;-90
2022/09/30 01:04:10;;;;;;;6.15;2.28;;;;;;;6.27;95.65;99385.19;4996303;28;20401;-91
2022/09/30 01:06:36;;;;;;;5.53;2.40;;;;;;;6.32;95.65;99387.72;4996244;28;20041;-93
2022/09/30 01:09:08;;;;;;;11.75;2.78;;;;;;;6.44;94.84;99383.53;5016015;28;20033;-91
2022/09/30 01:11:43;;;;;;;8.82;2.83;;;;;;;6.51;95.05;99384.63;5016479;28;20057;-91
2022/09/30 01:14:14;;;;;;;6.03;2.50;;;;;;;6.75;94.05;99388.66;5017274;28;20081;-90
2022/09/30 01:16:48;;;;;;;9.32;3.50;;;;;;;6.87;93.48;99392.22;4998549;28;20038;-92
2022/09/30 01:20:06;;;;;;;7.03;3.05;;;;;;;7.06;92.78;99391.81;5016117;28;20104;-92
2022/09/30 01:22:52;;;;;;;8.40;3.15;;;;;;;7.19;91.89;99389.97;5014530;28;20022;-92
2022/09/30 01:26:00;;;;;;;8.80;3.17;;;;;;;7.24;91.08;99387.06;5014590;28;20030;-91
2022/09/30 01:29:02;;;;;;;8.35;2.80;;;;;;;7.31;91.33;99391.94;4995245;28;20562;-91
2022/09/30 01:31:55;;;;;;;7.45;2.83;;;;;;;7.37;91.25;99402.25;4995702;28;20030;-91
2022/09/30 01:34:48;;;;;;;8.15;3.38;;;;;;;7.40;90.71;99398.09;5013358;28;20095;-91
2022/09/30 01:37:42;;;;;;;7.55;3.03;;;;;;;7.44;90.30;99399.81;4995834;28;20029;-91
2022/09/30 01:40:33;;;;;;;7.53;2.75;;;;;;;7.50;90.26;99387.66;4995977;28;20029;-89
2022/09/30 01:43:21;;;;;;;6.18;3.08;;;;;;;7.53;90.35;99389.69;4963447;28;20060;-92
2022/09/30 01:45:57;;;;;;;5.88;2.92;;;;;;;7.61;90.66;99398.88;4995714;28;20096;-92
2022/09/30 01:48:56;;;;;;;7.43;3.03;;;;;;;7.60;90.35;99393.78;4997268;28;20033;-91
2022/09/30 01:51:37;;;;;;;6.93;2.70;;;;;;;7.58;90.59;99390.63;5013785;28;20026;-91
2022/09/30 01:54:29;;;;;;;7.32;3.03;;;;;;;7.52;91.03;99390.81;5013663;28;20093;-91
2022/09/30 01:57:04;;;;;;;7.47;3.83;;;;;;;7.46;91.29;99397.56;4996141;28;20034;-91
2022/09/30 01:59:35;;;;;;;8.45;3.28;;;;;;;7.48;91.76;99403.44;5013577;28;20160;-92
2022/09/30 02:02:40;;;;;;;7.90;3.63;;;;;;;7.47;91.92;99404.56;5013703;28;20022;-92
2022/09/30 02:05:40;;;;;;;8.45;3.67;;;;;;;7.47;92.19;99406.47;4948741;28;20137;-93
2022/09/30 02:08:46;;;;;;;7.38;3.25;;;;;;;7.51;92.09;99399.28;4974379;28;20073;-92
2022/09/30 02:11:17;;;;;;;8.45;3.10;;;;;;;7.51;92.45;99402.78;4980523;28;20110;-92
2022/09/30 02:13:55;;;;;;;6.80;3.08;;;;;;;7.51;92.40;99404.69;4997576;28;20101;-92
2022/09/30 02:16:27;;;;;;;10.98;3.67;;;;;;;7.51;92.65;99400.06;4998220;28;20030;-93
2022/09/30 02:19:10;;;;;;;7.55;3.10;;;;;;;7.53;92.49;99391.59;4998761;28;20022;-92
2022/09/30 02:21:40;;;;;;;7.35;3.17;;;;;;;7.51;92.95;99389.22;4981571;28;20018;-93
2022/09/30 02:24:14;;;;;;;5.85;3.22;;;;;;;7.49;92.70;99396.09;4981710;28;20057;-94
2022/09/30 02:26:43;;;;;;;7.22;3.30;;;;;;;7.49;92.92;99385.28;4982097;28;20026;-92
2022/09/30 02:29:20;;;;;;;8.80;3.67;;;;;;;7.49;92.98;99388.78;4981187;28;20049;-93
2022/09/30 02:31:51;;;;;;;8.05;3.78;;;;;;;7.49;93.21;99396.09;4981278;28;20025;-92
2022/09/30 02:34:28;;;;;;;6.80;3.15;;;;;;;7.48;93.27;99389.91;4980520;28;20026;-93
2022/09/30 02:36:57;;;;;;;;;;;;;;;7.46;93.16;99402.19;4981177;28;20479;-91
2022/09/30 02:39:41;;;;;;;9.07;3.97;;;;;;;7.47;93.42;99406.47;4980567;28;19909;-93
2022/09/30 02:42:27;;;;;;;8.57;3.60;;;;;;;7.46;93.30;99402.97;4980669;28;20026;-94
2022/09/30 02:45:07;;;;;;;6.93;3.77;;;;;;;7.44;93.64;99402.53;4997699;28;20022;-93
2022/09/30 02:47:48;;;;;;;13.43;3.83;;;;;;;7.43;93.65;99398.22;4997734;28;20034;-93
2022/09/30 02:50:31;;;;;;;9.88;4.40;;;;;;;7.41;93.96;99413.22;4998412;28;20030;-92
2022/09/30 02:53:22;;;;;;;8.98;3.58;;;;;;;7.42;94.05;99404.78;4981470;28;20568;-93
2022/09/30 02:56:29;;;;;;;10.23;3.88;;;;;;;7.42;94.05;99412.91;4998507;28;20046;-93
2022/09/30 02:58:56;;;;;;;9.43;3.60;;;;;;;7.41;94.15;99416.72;4962168;28;20042;-95
2022/09/30 03:01:26;;;;;;;7.97;3.70;;;;;;;7.42;94.29;99410.19;4998199;28;20030;-94
2022/09/30 03:04:07;;;;;;;8.13;3.65;;;;;;;7.44;94.09;99410.66;4982537;28;20045;-89
2022/09/30 03:06:34;;;;;;;9.27;3.72;;;;;;;7.44;94.24;99413.34;5018163;28;20040;-93
2022/09/30 03:09:00;;;;;;;9.93;4.03;;;;;;;7.51;93.99;99410.09;5023677;28;20028;-90
2022/09/30 03:11:27;;;;;;;8.23;3.92;;;;;;;7.46;94.40;99411.09;4994591;28;20057;-91
2022/09/30 03:14:08;;;;;;;9.25;3.58;;;;;;;7.43;94.67;99417.19;5012906;28;20037;-91
2022/09/30 03:16:58;;;;;;;8.13;3.90;;;;;;;7.37;95.16;99410.38;5033875;28;20045;-91
2022/09/30 03:19:54;;;;;;;8.68;4.13;;;;;;;7.33;95.49;99414.88;5033868;28;20068;-89
2022/09/30 03:22:41;;;;;;;7.97;3.63;;;;;;;7.33;95.85;99420.28;5012975;28;20100;-89
2022/09/30 03:25:15;;;;;;;;;;;;;;;7.31;96.11;99425.25;5017980;28;20037;-91
2022/09/30 03:28:12;;;;;;;9.52;4.10;;;;;;;7.31;96.13;99427.94;5016392;28;19929;-88
2022/09/30 03:30:50;;;;;;;10.60;4.60;;;;;;;7.36;95.93;99430.44;5015500;28;20112;-89
2022/09/30 03:33:49;;;;;;;7.85;3.63;;;;;;;7.34;96.11;99426.50;5014863;28;20260;-89
2022/09/30 03:36:37;;;;;;;14.68;4.20;;;;;;;7.30;96.44;99428.28;4995370;28;20029;-89
2022/09/30 03:39:28;;;;;;;11.40;4.05;;;;;;;7.29;96.55;99430.19;5014300;28;20100;-89
2022/09/30 03:42:16;;;;;;;7.07;3.95;;;;;;;7.27;96.47;99432.44;4997089;28;20120;-90
2022/09/30 03:45:08;;;;;;;7.97;3.97;;;;;;;7.23;96.59;99435.03;5014544;28;20058;-89
2022/09/30 03:47:43;;;;;;;8.10;3.72;;;;;;;7.24;96.66;99433.91;4988297;28;20061;-89
2022/09/30 03:50:13;;;;;;;7.13;3.42;;;;;;;7.23;96.94;99432.31;5014891;28;20367;-91
2022/09/30 03:52:39;;;;;;;7.72;3.85;;;;;;;7.24;96.93;99441.22;4996835;28;20034;-91
2022/09/30 03:55:10;;;;;;;10.52;4.22;;;;;;;7.26;96.78;99443.59;4997841;28;20040;-92
2022/09/30 03:57:38;;;;;;;11.00;4.53;;;;;;;7.32;96.51;99445.78;4998659;28;20030;-94
2022/09/30 04:00:06;;;;;;;9.00;4.40;;;;;;;7.32;96.41;99455.81;5018063;28;20033;-94
2022/09/30 04:02:36;;;;;;;10.15;4.43;;;;;;;7.31;96.33;99449.59;5019195;28;20103;-95
2022/09/30 04:05:02;;;;;;;9.68;3.90;;;;;;;7.27;96.47;99445.97;5020265;28;20088;-96
2022/09/30 04:07:28;;;;;;;8.73;4.50;;;;;;;7.26;96.54;99454.44;5017029;28;20116;-94
2022/09/30 04:09:54;;;;;;;12.10;5.20;;;;;;;7.25;96.84;99450.94;4998822;28;20057;-95
2022/09/30 04:12:20;;;;;;;8.80;4.50;;;;;;;7.25;97.00;99450.94;5017122;28;20029;-94
2022/09/30 04:14:45;;;;;;;11.40;4.53;;;;;;;7.31;96.33;99456.94;4999764;28;20033;-95
2022/09/30 04:17:11;;;;;;;8.30;4.65;;;;;;;7.27;96.74;99474.97;4999915;28;20267;-95
2022/09/30 04:19:39;;;;;;;11.35;4.38;;;;;;;7.34;96.63;99481.44;5017850;28;20089;-95
2022/09/30 04:22:07;;;;;;;8.15;4.70;;;;;;;7.24;96.93;99471.00;4999968;28;20018;-95
2022/09/30 04:24:33;;;;;;;10.52;4.43;;;;;;;7.23;97.17;99475.63;4998595;28;20126;-94
2022/09/30 04:26:59;;;;;;;10.32;5.00;;;;;;;7.27;96.69;99469.56;4999044;28;20482;-94
2022/09/30 04:29:24;;;;;;;12.18;4.72;;;;;;;7.24;97.27;99473.72;4999054;28;20186;-92
2022/09/30 04:31:50;;;;;;;9.63;4.70;;;;;;;7.21;96.82;99482.47;5014590;28;20083;-89
2022/09/30 04:34:15;;;;;;;10.87;5.13;;;;;;;7.14;97.21;99487.63;4997539;28;20345;-90
2022/09/30 04:37:00;;;;;;;10.98;5.05;;;;;;;7.13;97.28;99488.75;4997616;28;20281;-92
2022/09/30 04:39:25;;;;;;;11.43;4.88;;;;;;;7.15;97.66;99486.50;4997935;28;20038;-92
2022/09/30 04:41:52;;;;;;;8.87;4.67;;;;;;;7.14;97.76;99483.00;5014495;28;20167;-91
2022/09/30 04:44:18;;;;;;;10.30;4.97;;;;;;;7.31;96.79;99486.72;4996809;28;20709;-92
2022/09/30 04:46:43;;;;;;;11.45;4.85;;;;;;;7.31;95.90;99489.44;5014204;28;20050;-90
2022/09/30 04:49:08;;;;;;;8.23;4.37;;;;;;;7.14;96.82;99482.22;4996154;28;20026;-90
2022/09/30 04:51:34;;;;;;;10.57;4.63;;;;;;;7.10;96.14;99484.78;5013376;28;20073;-92
2022/09/30 04:54:00;;;;;;;;;;;;;;;6.92;96.84;99494.91;4995775;28;20261;-88
2022/09/30 04:56:25;;;;;;;9.10;4.15;;;;;;;6.90;97.08;99493.66;4996857;28;20259;-92
2022/09/30 04:58:52;;;;;;;9.13;3.72;;;;;;;7.22;95.90;99490.31;4996521;28;20373;-93
2022/09/30 05:01:17;;;;;;;10.70;4.00;;;;;;;7.28;94.58;99487.41;4996400;28;20079;-95
2022/09/30 05:03:43;;;;;;;8.70;3.72;;;;;;;7.20;94.51;99491.72;4999577;28;20025;-91
2022/09/30 05:06:10;;;;;;;7.43;3.60;;;;;;;7.05;94.71;99506.59;5012897;28;20092;-90
2022/09/30 05:08:35;;;;;;;13.25;4.90;;;;;;;6.92;94.89;99507.63;5013019;28;20040;-90
2022/09/30 05:11:09;;;;;;;9.35;4.28;;;;;;;6.79;95.59;99497.81;5013391;28;20323;-91
2022/09/30 05:13:39;;;;;;;11.70;4.72;;;;;;;6.74;95.65;99503.41;5014052;28;20037;-88
2022/09/30 05:16:06;;;;;;;9.98;4.70;;;;;;;6.74;96.09;99511.53;5013151;28;20111;-87
2022/09/30 05:18:35;;;;;;;9.15;4.20;;;;;;;6.73;95.95;99510.75;5013066;28;20022;-86
2022/09/30 05:21:01;;;;;;;11.43;5.00;;;;;;;6.70;96.21;99508.66;4994853;28;20076;-87
2022/09/30 05:23:29;;;;;;;11.10;4.80;;;;;;;6.69;96.58;99500.88;4994504;28;20116;-87
2022/09/30 05:25:55;;;;;;;9.82;4.55;;;;;;;6.65;96.23;99503.44;5012872;28;20460;-87
2022/09/30 05:28:21;;;;;;;9.38;4.80;;;;;;;6.73;96.25;99508.03;4994620;28;20037;-86
2022/09/30 05:30:49;;;;;;;9.30;4.70;;;;;;;6.80;96.29;99515.63;5012500;28;20022;-86
2022/09/30 05:33:15;;;;;;;16.55;5.60;;;;;;;6.63;96.57;99516.47;4995183;28;20053;-87
2022/09/30 05:35:42;;;;;;;14.68;4.50;;;;;;;6.51;97.67;99519.84;5012887;28;20486;-87
2022/09/30 05:38:08;;;;;;;9.07;4.32;;;;;;;6.52;99.57;99534.16;4978994;28;20112;-86
2022/09/30 05:40:38;;;;;;;11.23;5.07;;;;;;;6.58;99.17;99535.59;5013066;28;20038;-85
2022/09/30 05:43:08;;;;;;;11.57;4.60;;;;;;;6.71;98.93;99540.00;4995911;28;20030;-85
2022/09/30 05:45:37;;;;;;;11.25;4.40;;;;;;;6.87;99.40;99538.38;4999198;28;20029;-85
2022/09/30 05:48:03;;;;;;;11.02;4.70;;;;;;;7.00;98.99;99541.97;5017311;28;20030;-86
2022/09/30 05:50:29;;;;;;;12.25;5.05;;;;;;;6.97;98.07;99544.56;4998511;28;20500;-87
2022/09/30 05:52:56;;;;;;;10.20;5.85;;;;;;;6.97;97.99;99556.16;4982619;28;20042;-86
2022/09/30 05:55:24;;;;;;;10.10;5.30;;;;;;;7.09;98.42;99547.38;5014794;28;20048;-85
2022/09/30 05:58:05;;;;;;;13.02;6.07;;;;;;;7.28;98.79;99558.59;5015735;28;20064;-84
2022/09/30 06:00:35;;;;;;;14.23;6.55;;;;;;;7.32;97.01;99558.72;5015803;28;20033;-85
2022/09/30 06:03:03;;;;;;;13.60;6.65;;;;;;;7.24;97.40;99554.97;4981827;28;20029;-87
2022/09/30 06:05:28;;;;;;;12.95;6.30;;;;;;;7.31;96.74;99547.09;5015875;28;20049;-85
2022/09/30 06:07:58;;;;;;;14.53;6.40;;;;;;;7.29;96.97;99564.81;4998299;28;20587;-87
2022/09/30 06:10:23;;;;;;;14.30;6.05;;;;;;;7.38;96.73;99552.78;5016104;28;20268;-87
2022/09/30 06:12:50;;;;;;;17.83;6.95;;;;;;;7.43;96.72;99559.97;5016561;28;20091;-88
2022/09/30 06:15:40;;;;;;;13.80;5.88;;;;;;;7.45;96.46;99563.94;5019940;28;20042;-86
2022/09/30 06:18:06;;;;;;;13.57;6.53;;;;;;;7.47;96.50;99567.09;4998778;28;20037;-86
2022/09/30 06:20:35;;;;;;;11.43;5.63;;;;;;;7.47;96.61;99572.50;5019472;28;20017;-88
2022/09/30 06:23:03;;;;;;;10.90;5.60;;;;;;;7.61;97.18;99577.72;5015280;28;20095;-87
2022/09/30 06:25:31;;;;;;;12.70;5.82;;;;;;;7.61;96.44;99563.38;4981008;28;20042;-88
2022/09/30 06:28:02;;;;;;;12.90;5.80;;;;;;;7.62;96.77;99573.06;4997507;28;20029;-87
2022/09/30 06:30:28;;;;;;;9.65;5.50;;;;;;;7.61;97.06;99582.31;5015152;28;20017;-86
2022/09/30 06:33:02;;;;;;;11.30;5.97;;;;;;;7.61;96.17;99585.03;5015081;28;20032;-87
2022/09/30 06:35:28;;;;;;;10.38;5.63;;;;;;;7.63;96.27;99594.44;4997387;28;20279;-87
2022/09/30 06:37:53;;;;;;;12.50;5.53;;;;;;;7.62;96.33;99594.75;4997814;28;20030;-86
2022/09/30 06:40:22;;;;;;;10.00;4.78;;;;;;;7.60;95.83;99599.72;5014988;28;20347;-87
2022/09/30 06:42:48;;;;;;;10.10;5.60;;;;;;;7.66;96.05;99603.81;5015292;28;20026;-87
2022/09/30 06:45:17;;;;;;;;;;;;;;;7.61;95.60;99615.63;4982281;28;20045;-85
2022/09/30 06:47:58;;;;;;;10.63;4.90;;;;;;;7.60;95.99;99607.84;4998434;28;19909;-86
2022/09/30 06:50:24;;;;;;;12.52;5.53;;;;;;;7.67;95.99;99613.53;4997494;28;20431;-86
2022/09/30 06:52:50;;;;;;;13.25;5.13;;;;;;;7.69;95.56;99611.28;4998373;28;20060;-86
2022/09/30 06:55:16;;;;;;;11.65;5.45;;;;;;;7.67;95.34;99625.16;4998539;28;20137;-88
2022/09/30 06:57:48;;;;;;;9.35;4.78;;;;;;;7.74;95.60;99627.38;4998564;28;20022;-87
2022/09/30 07:00:15;;;;;;;10.57;5.15;;;;;;;7.89;95.79;99626.78;4999500;28;20033;-87
2022/09/30 07:02:42;;;;;;;10.07;4.80;;;;;;;7.97;94.16;99631.38;5017277;28;20018;-87
2022/09/30 07:05:08;;;;;;;10.50;5.88;;;;;;;8.08;93.83;99629.88;5017425;28;20045;-87
2022/09/30 07:07:35;;;;;;;14.13;5.13;;;;;;;7.99;93.63;99637.25;4998660;28;20026;-86
2022/09/30 07:10:03;;;;;;;10.20;4.63;;;;;;;7.88;93.48;99637.94;5000411;28;20069;-87
2022/09/30 07:12:31;;;;;;;8.38;4.07;;;;;;;7.84;93.59;99635.09;5017935;28;20022;-87
2022/09/30 07:14:57;;;;;;;11.10;4.50;;;;;;;7.84;93.26;99637.81;5017228;28;20025;-89
2022/09/30 07:17:23;;;;;;;8.00;4.15;;;;;;;7.92;93.86;99631.56;5016749;28;20045;-87
2022/09/30 07:19:51;;;;;;;8.23;4.10;;;;;;;7.92;92.96;99630.78;5016513;28;20494;-88
2022/09/30 07:22:29;;;;;;;8.70;3.90;;;;;;;7.95;92.87;99639.03;5016510;28;20451;-89
2022/09/30 07:25:00;;;;;;;8.60;4.57;;;;;;;7.96;92.73;99635.19;5019372;28;20029;-89
2022/09/30 07:27:27;;;;;;;12.38;4.88;;;;;;;8.00;92.46;99638.84;5018007;28;20066;-90
2022/09/30 07:29:53;;;;;;;12.30;4.85;;;;;;;8.05;92.51;99640.56;5016901;28;20021;-91
2022/09/30 07:32:20;;;;;;;8.43;3.83;;;;;;;8.17;92.77;99631.72;5001381;28;20032;-90
2022/09/30 07:34:46;;;;;;;10.23;4.78;;;;;;;8.17;91.54;99637.13;5000801;28;20104;-93
2022/09/30 07:37:14;;;;;;;12.23;4.82;;;;;;;8.22;91.76;99643.16;5017885;28;20042;-90
2022/09/30 07:39:47;;;;;;;8.45;3.92;;;;;;;8.20;91.00;99637.25;5016816;28;20029;-92
2022/09/30 07:42:19;;;;;;;8.05;4.88;;;;;;;8.29;91.25;99643.44;5017957;28;20022;-88
2022/09/30 07:44:44;;;;;;;8.80;4.47;;;;;;;8.36;91.21;99645.63;4998222;28;20434;-88
2022/09/30 07:47:10;;;;;;;9.32;4.38;;;;;;;8.47;90.89;99646.84;4998299;28;20068;-87
2022/09/30 07:49:37;;;;;;;8.80;4.10;;;;;;;8.67;90.44;99651.44;5016780;28;20431;-86
2022/09/30 07:52:02;;;;;;;10.52;4.43;;;;;;;8.71;90.44;99652.34;5016493;28;20029;-89
2022/09/30 07:54:30;;;;;;;9.65;4.72;;;;;;;8.85;90.25;99651.28;4998464;28;20544;-89
2022/09/30 07:56:58;;;;;;;9.55;4.50;;;;;;;8.93;89.30;99651.22;4997900;28;20029;-87
2022/09/30 07:59:24;;;;;;;13.18;5.40;;;;;;;8.92;89.79;99646.13;4998517;28;20120;-87
2022/09/30 08:01:52;;;;;;;;;;;;;;;9.01;89.39;99652.25;4997789;28;20022;-86
2022/09/30 08:04:19;;;;;;;10.40;4.75;;;;;;;9.12;89.40;99653.41;5013813;28;19909;-88
2022/09/30 08:06:47;;;;;;;8.80;4.13;;;;;;;9.24;88.73;99653.44;4996548;28;20083;-86
2022/09/30 08:09:15;;;;;;;8.20;4.35;;;;;;;9.12;88.86;99650.69;5016315;28;20518;-91
2022/09/30 08:11:41;;;;;;;10.80;4.93;;;;;;;9.26;89.38;99656.63;5016440;28;20029;-90
2022/09/30 08:14:11;;;;;;;10.07;4.88;;;;;;;9.32;88.95;99654.47;5016698;28;20029;-89
2022/09/30 08:16:37;;;;;;;9.55;4.93;;;;;;;9.47;88.77;99648.38;4997520;28;20390;-87
2022/09/30 08:19:05;;;;;;;10.20;5.13;;;;;;;9.64;88.02;99658.25;5015438;28;20033;-89
2022/09/30 08:21:30;;;;;;;11.65;6.03;;;;;;;9.68;88.42;99647.47;4998064;28;20482;-88
2022/09/30 08:23:56;;;;;;;12.00;5.50;;;;;;;9.80;87.53;99655.66;5016009;28;20080;-90
2022/09/30 08:26:23;;;;;;;9.52;4.88;;;;;;;9.88;86.93;99650.06;5014896;28;20272;-89
2022/09/30 08:28:48;;;;;;;11.32;5.10;;;;;;;9.99;86.73;99658.56;5014924;28;20113;-86
2022/09/30 08:31:36;;;;;;;11.10;5.28;;;;;;;10.07;86.52;99657.66;5014924;28;20061;-88
2022/09/30 08:34:02;;;;;;;13.13;5.65;;;;;;;10.18;86.95;99656.06;5014330;28;20033;-87
2022/09/30 08:36:27;;;;;;;10.73;5.72;;;;;;;10.32;86.40;99653.00;5014968;28;20029;-86
2022/09/30 08:38:53;;;;;;;11.52;5.30;;;;;;;10.42;85.46;99647.09;5015082;28;20482;-86
2022/09/30 08:41:37;;;;;;;12.68;5.80;;;;;;;10.41;85.36;99648.22;5014526;28;20022;-89
2022/09/30 08:44:23;;;;;;;9.05;4.93;;;;;;;10.50;84.69;99651.59;4997835;28;20030;-90
2022/09/30 08:47:13;;;;;;;10.90;5.47;;;;;;;10.60;85.00;99657.69;4996976;28;20036;-89
2022/09/30 08:50:03;;;;;;;13.35;5.72;;;;;;;10.79;83.55;99661.34;5014746;28;20030;-91
2022/09/30 08:52:52;;;;;;;10.52;5.47;;;;;;;10.87;84.20;99667.78;5017064;28;20030;-88
2022/09/30 08:55:32;;;;;;;13.40;6.07;;;;;;;10.95;83.23;99658.69;5016632;28;20486;-91
2022/09/30 08:57:58;;;;;;;10.95;5.20;;;;;;;11.01;82.90;99668.19;5002358;28;20089;-92
2022/09/30 09:00:23;;;;;;;14.25;7.20;;;;;;;11.05;83.22;99666.34;4999613;28;20095;-93
2022/09/30 09:02:57;;;;;;;13.40;5.68;;;;;;;11.13;82.44;99664.59;4999041;28;20474;-91
2022/09/30 09:06:01;;;;;;;12.38;5.72;;;;;;;11.23;82.05;99666.00;5019545;28;20050;-92
2022/09/30 09:09:10;;;;;;;10.07;5.35;;;;;;;11.29;81.50;99665.41;4999826;28;20034;-93
2022/09/30 09:11:44;;;;;;;11.30;5.22;;;;;;;11.39;81.68;99664.88;5019134;28;20478;-94
2022/09/30 09:15:03;;;;;;;9.68;5.47;;;;;;;11.35;82.17;99671.41;5021296;28;20086;-91
2022/09/30 09:18:03;;;;;;;11.52;5.72;;;;;;;11.52;81.84;99667.53;4985526;28;20044;-93
2022/09/30 09:20:37;;;;;;;11.85;6.05;;;;;;;11.58;80.49;99666.13;4996757;28;20029;-92
2022/09/30 09:23:09;;;;;;;9.82;5.40;;;;;;;11.62;80.31;99664.28;5019720;28;20018;-91
2022/09/30 09:25:35;;;;;;;13.27;5.93;;;;;;;11.67;80.65;99662.09;5001847;28;20026;-93
2022/09/30 09:28:05;;;;;;;9.82;5.10;;;;;;;11.85;80.20;99668.00;5016743;28;20030;-91
2022/09/30 09:30:46;;;;;;;8.85;5.03;;;;;;;12.08;78.87;99654.47;5018374;28;20033;-91
2022/09/30 09:33:28;;;;;;;12.27;5.03;;;;;;;12.10;78.93;99656.88;5019126;28;20018;-92
2022/09/30 09:36:04;;;;;;;10.80;5.30;;;;;;;12.14;78.63;99653.06;5002265;28;20152;-92
2022/09/30 09:38:40;;;;;;;9.40;5.20;;;;;;;12.05;78.26;99660.66;5001404;28;20034;-91
2022/09/30 09:41:36;;;;;;;8.57;4.73;;;;;;;12.00;78.69;99658.22;5001504;28;20029;-90
2022/09/30 09:44:30;;;;;;;10.27;5.05;;;;;;;12.12;79.18;99657.31;4999785;28;20761;-91
2022/09/30 09:47:22;;;;;;;10.38;5.18;;;;;;;12.17;78.34;99660.53;4999448;28;20046;-92
2022/09/30 09:49:57;;;;;;;8.75;4.82;;;;;;;12.23;77.63;99656.38;4995249;28;20033;-93
2022/09/30 09:52:39;;;;;;;8.80;4.50;;;;;;;12.22;76.49;99665.72;5017029;28;20049;-94
2022/09/30 09:55:05;;;;;;;8.00;4.70;;;;;;;12.22;77.79;99665.72;5017739;28;20018;-91
2022/09/30 09:57:31;;;;;;;7.30;4.00;;;;;;;12.39;77.34;99663.72;5000183;28;20032;-92
2022/09/30 10:01:04;;;;;;;;;;;;;;;12.39;76.67;99667.25;4998576;28;20041;-90
2022/09/30 10:02:59;;;;;;;8.77;4.53;;;;;;;12.46;75.91;99666.63;5018048;28;19953;-90
2022/09/30 10:05:25;;;;;;;9.23;5.10;;;;;;;12.46;74.98;99658.44;5006886;28;20050;-91
2022/09/30 10:08:08;;;;;;;8.05;3.63;;;;;;;12.59;75.60;99659.88;4999739;28;20026;-91
2022/09/30 10:10:43;;;;;;;9.75;4.40;;;;;;;12.68;75.21;99665.13;4998112;28;20025;-92
2022/09/30 10:13:31;;;;;;;7.50;4.10;;;;;;;12.69;74.28;99656.56;5016649;28;20022;-94
2022/09/30 10:15:59;;;;;;;10.00;4.80;;;;;;;12.70;75.44;99649.97;4986555;28;20394;-91
2022/09/30 10:18:30;;;;;;;8.13;3.92;;;;;;;12.93;74.94;99655.47;4983405;28;20026;-93
2022/09/30 10:20:59;;;;;;;8.00;4.45;;;;;;;12.85;74.37;99657.28;5018133;28;20028;-90
2022/09/30 10:23:31;;;;;;;7.93;4.25;;;;;;;12.84;73.80;99655.72;5002284;28;20029;-94
2022/09/30 10:26:02;;;;;;;7.22;3.92;;;;;;;12.87;73.73;99652.25;5002383;28;20033;-94
2022/09/30 10:28:31;;;;;;;8.65;4.40;;;;;;;12.99;73.60;99648.56;5000199;28;20018;-92
2022/09/30 10:31:10;;;;;;;6.57;4.03;;;;;;;13.04;73.18;99650.22;5003054;28;20030;-91
2022/09/30 10:33:43;;;;;;;6.85;4.10;;;;;;;13.19;72.69;99649.34;5019516;28;20125;-93
2022/09/30 10:36:18;;;;;;;7.53;4.13;;;;;;;13.39;71.97;99642.69;5019469;28;20087;-91
2022/09/30 10:39:01;;;;;;;9.60;5.18;;;;;;;13.04;71.85;99650.22;5020173;28;20124;-93
2022/09/30 10:41:30;;;;;;;8.38;4.30;;;;;;;13.09;71.63;99653.44;5020036;28;20026;-92
2022/09/30 10:44:01;;;;;;;8.20;4.03;;;;;;;13.13;71.31;99648.84;5001984;28;20026;-90
2022/09/30 10:46:28;;;;;;;7.95;4.28;;;;;;;13.20;71.48;99654.47;5002170;28;20076;-92
2022/09/30 10:48:56;;;;;;;6.97;3.92;;;;;;;13.07;71.00;99654.94;5002226;28;20083;-90
2022/09/30 10:51:32;;;;;;;8.50;4.30;;;;;;;13.21;71.16;99647.03;5020596;28;20022;-89
2022/09/30 10:53:58;;;;;;;7.50;4.03;;;;;;;13.22;71.73;99645.88;5022860;28;20030;-91
2022/09/30 10:56:40;;;;;;;7.40;3.75;;;;;;;13.70;71.32;99658.03;5003712;28;20022;-93
2022/09/30 10:59:37;;;;;;;8.77;3.78;;;;;;;13.69;70.72;99647.47;5020505;28;20036;-91
2022/09/30 11:02:22;;;;;;;;;;;;;;;13.46;68.78;99661.16;5006386;28;20022;-92
2022/09/30 11:05:08;;;;;;;6.68;3.50;;;;;;;13.53;70.30;99659.34;5010497;28;19918;-95
2022/09/30 11:08:06;;;;;;;8.18;3.67;;;;;;;13.68;69.83;99665.03;5007630;28;20101;-94
2022/09/30 11:10:58;;;;;;;6.63;3.47;;;;;;;13.88;68.79;99658.31;4971063;28;20034;-92
2022/09/30 11:13:41;;;;;;;5.65;2.88;;;;;;;13.79;67.07;99671.50;5013955;28;20175;-93
2022/09/30 11:16:08;;;;;;;6.60;3.00;;;;;;;13.67;67.20;99672.47;5017644;28;20041;-93
2022/09/30 11:18:36;;;;;;;5.97;3.13;;;;;;;13.73;67.77;99675.66;5020806;28;20033;-90
2022/09/30 11:21:18;;;;;;;7.00;3.15;;;;;;;13.78;67.65;99683.59;5035535;28;20030;-92
2022/09/30 11:23:52;;;;;;;8.25;3.08;;;;;;;13.89;67.23;99681.78;5013600;28;20037;-92
2022/09/30 11:26:42;;;;;;;10.15;4.45;;;;;;;13.91;67.59;99676.75;5007316;28;20030;-94
2022/09/30 11:29:25;;;;;;;7.28;3.13;;;;;;;13.88;67.26;99680.22;5011629;28;20026;-92
2022/09/30 11:32:00;;;;;;;6.82;2.83;;;;;;;13.73;66.19;99670.97;5010997;28;20084;-91
2022/09/30 11:34:53;;;;;;;8.63;2.70;;;;;;;13.67;66.88;99677.94;5009783;28;20107;-93
2022/09/30 11:37:45;;;;;;;6.63;3.08;;;;;;;13.59;67.14;99669.97;5009292;28;20089;-91
2022/09/30 11:40:43;;;;;;;9.27;3.13;;;;;;;13.47;68.08;99669.00;5009524;28;20026;-93
2022/09/30 11:43:36;;;;;;;5.22;2.63;;;;;;;13.37;67.78;99671.53;4980074;28;20051;-92
2022/09/30 11:46:01;;;;;;;7.70;2.33;;;;;;;13.51;67.27;99664.38;5009649;28;20344;-92
2022/09/30 11:48:30;;;;;;;5.05;2.20;;;;;;;13.66;65.40;99670.09;5004899;28;20076;-92
2022/09/30 11:51:07;;;;;;;5.85;2.25;;;;;;;13.87;65.17;99667.69;5006227;28;20041;-93
2022/09/30 11:54:20;;;;;;;5.43;2.42;;;;;;;14.05;65.09;99657.00;5007605;28;20022;-91
2022/09/30 11:57:13;;;;;;;8.82;2.92;;;;;;;14.18;64.49;99663.84;5003024;28;20025;-93
2022/09/30 12:00:07;;;;;;;4.85;2.83;;;;;;;14.53;61.97;99654.56;5003311;28;20060;-90
2022/09/30 12:02:43;;;;;;;5.43;2.92;;;;;;;14.44;62.29;99661.13;5013240;28;20099;-93
2022/09/30 12:05:21;;;;;;;7.15;3.30;;;;;;;14.30;62.77;99649.16;5021909;28;20050;-93
2022/09/30 12:08:01;;;;;;;6.65;3.10;;;;;;;14.26;63.46;99651.03;5022003;28;20030;-90
2022/09/30 12:10:35;;;;;;;4.78;2.38;;;;;;;14.29;62.59;99637.41;5001225;28;20494;-91
2022/09/30 12:13:25;;;;;;;5.70;2.90;;;;;;;14.43;62.99;99636.78;5005592;28;20033;-94
2022/09/30 12:15:56;;;;;;;5.82;2.70;;;;;;;14.45;62.47;99640.00;5005397;28;20026;-94